createdAt,value
2018-09-20T00:02:02.900Z,4.80
2018-09-20T00:04:30.465Z,4.33
2018-09-20T00:06:57.985Z,3.97
2018-09-20T00:09:25.546Z,4.83
2018-09-20T00:11:53.083Z,4.40
2018-09-20T00:14:20.618Z,4.63
2018-09-20T00:16:48.237Z,4.32
2018-09-20T00:19:15.884Z,4.30
2018-09-20T00:21:43.423Z,4.50
2018-09-20T00:24:11.004Z,3.70
2018-09-20T00:26:38.520Z,4.15
2018-09-20T00:29:06.123Z,4.00
2018-09-20T00:31:33.643Z,4.30
2018-09-20T00:34:01.185Z,4.03
2018-09-20T00:36:28.794Z,4.40
2018-09-20T00:38:56.361Z,4.33
2018-09-20T00:41:23.989Z,4.07
2018-09-20T00:43:51.522Z,3.83
2018-09-20T00:46:19.079Z,4.20
2018-09-20T00:48:46.800Z,3.70
2018-09-20T00:51:14.341Z,4.10
2018-09-20T00:53:41.847Z,3.87
2018-09-20T00:56:09.517Z,3.93
2018-09-20T00:58:37.039Z,4.17
2018-09-20T01:01:04.637Z,4.17
2018-09-20T01:03:32.193Z,3.70
2018-09-20T01:05:59.743Z,3.57
2018-09-20T01:08:27.283Z,4.30
2018-09-20T01:10:54.877Z,4.23
2018-09-20T01:13:22.433Z,3.83
2018-09-20T01:15:49.942Z,3.47
2018-09-20T01:18:17.512Z,4.00
2018-09-20T01:20:45.069Z,4.27
2018-09-20T01:23:12.781Z,3.70
2018-09-20T01:25:40.354Z,4.10
2018-09-20T01:28:07.894Z,3.80
2018-09-20T01:30:35.419Z,4.23
2018-09-20T01:33:02.978Z,3.57
2018-09-20T01:35:30.553Z,4.40
2018-09-20T01:37:58.100Z,4.20
2018-09-20T01:40:30.010Z,4.63
2018-09-20T01:42:57.585Z,4.20
2018-09-20T01:45:25.120Z,4.30
2018-09-20T01:47:56.295Z,4.93
2018-09-20T01:50:23.803Z,3.57
2018-09-20T01:52:51.344Z,4.40
2018-09-20T01:55:18.901Z,4.40
2018-09-20T01:57:46.423Z,4.13
2018-09-20T02:00:14.031Z,4.40
2018-09-20T02:02:41.601Z,4.20
2018-09-20T02:05:09.129Z,4.10
2018-09-20T02:07:36.731Z,4.20
2018-09-20T02:10:04.313Z,4.30
2018-09-20T02:12:31.876Z,3.97
2018-09-20T02:14:59.411Z,4.83
2018-09-20T02:17:27.008Z,4.60
2018-09-20T02:19:54.525Z,4.30
2018-09-20T02:22:22.252Z,4.23
2018-09-20T02:24:49.780Z,4.30
2018-09-20T02:27:17.472Z,5.13
2018-09-20T02:29:45.007Z,4.37
2018-09-20T02:32:12.547Z,5.03
2018-09-20T02:34:40.133Z,4.90
2018-09-20T02:37:07.724Z,4.30
2018-09-20T02:39:35.249Z,4.40
2018-09-20T02:42:02.834Z,4.90
2018-09-20T02:44:30.393Z,4.40
2018-09-20T02:46:57.967Z,4.97
2018-09-20T02:49:25.572Z,4.70
2018-09-20T02:51:53.102Z,5.17
2018-09-20T02:54:20.627Z,4.77
2018-09-20T02:56:48.202Z,5.37
2018-09-20T02:59:15.784Z,4.90
2018-09-20T03:01:43.295Z,4.70
2018-09-20T03:04:10.858Z,4.63
2018-09-20T03:06:38.416Z,4.70
2018-09-20T03:09:06.133Z,4.60
2018-09-20T03:11:33.647Z,5.17
2018-09-20T03:14:02.298Z,4.50
2018-09-20T03:16:29.835Z,4.93
2018-09-20T03:18:57.409Z,4.80
2018-09-20T03:21:24.962Z,4.27
2018-09-20T03:23:52.552Z,5.03
2018-09-20T03:26:20.183Z,4.80
2018-09-20T03:28:47.753Z,5.13
2018-09-20T03:31:15.321Z,4.73
2018-09-20T03:33:42.884Z,5.00
2018-09-20T03:36:10.411Z,5.43
2018-09-20T03:38:37.998Z,4.53
2018-09-20T03:41:05.581Z,4.80
2018-09-20T03:43:33.109Z,5.50
2018-09-20T03:46:00.671Z,4.73
2018-09-20T03:48:28.180Z,4.97
2018-09-20T03:50:55.748Z,5.07
2018-09-20T03:53:23.258Z,4.90
2018-09-20T03:55:50.795Z,4.57
2018-09-20T03:58:18.354Z,4.97
2018-09-20T04:00:46.112Z,5.17
2018-09-20T04:03:13.677Z,5.27
2018-09-20T04:05:41.209Z,5.63
2018-09-20T04:08:08.782Z,5.27
2018-09-20T04:10:36.696Z,5.17
2018-09-20T04:13:04.235Z,4.70
2018-09-20T04:15:31.791Z,5.27
2018-09-20T04:17:59.359Z,5.10
2018-09-20T04:20:26.924Z,5.20
2018-09-20T04:22:54.491Z,4.90
2018-09-20T04:25:22.061Z,4.70
2018-09-20T04:27:49.599Z,4.97
2018-09-20T04:30:17.223Z,5.00
2018-09-20T04:32:44.765Z,4.50
2018-09-20T04:35:12.280Z,5.37
2018-09-20T04:37:39.832Z,4.93
2018-09-20T04:40:07.356Z,6.20
2018-09-20T04:42:34.939Z,4.80
2018-09-20T04:45:02.490Z,5.63
2018-09-20T04:47:30.121Z,5.03
2018-09-20T04:49:57.816Z,5.50
2018-09-20T04:52:25.347Z,5.23
2018-09-20T04:54:53.038Z,5.40
2018-09-20T04:57:24.714Z,5.57
2018-09-20T04:59:52.348Z,5.20
2018-09-20T05:02:19.928Z,5.30
2018-09-20T05:04:47.494Z,5.30
2018-09-20T05:07:15.127Z,5.10
2018-09-20T05:09:42.695Z,5.10
2018-09-20T05:12:10.214Z,5.10
2018-09-20T05:14:37.807Z,5.33
2018-09-20T05:17:05.351Z,5.50
2018-09-20T05:19:32.953Z,4.90
2018-09-20T05:22:00.559Z,5.13
2018-09-20T05:24:28.086Z,5.43
2018-09-20T05:26:55.760Z,5.60
2018-09-20T05:29:23.304Z,6.10
2018-09-20T05:31:50.878Z,5.57
2018-09-20T05:34:22.292Z,5.20
2018-09-20T05:36:49.860Z,6.03
2018-09-20T05:39:17.442Z,5.60
2018-09-20T05:41:45.050Z,5.50
2018-09-20T05:44:12.603Z,5.90
2018-09-20T05:46:40.154Z,5.40
2018-09-20T05:49:07.890Z,6.10
2018-09-20T05:51:35.425Z,5.97
2018-09-20T05:54:02.980Z,5.93
2018-09-20T05:56:30.515Z,6.03
2018-09-20T05:58:58.081Z,5.93
2018-09-20T06:01:25.664Z,6.17
2018-09-20T06:03:53.219Z,6.10
2018-09-20T06:06:20.756Z,5.20
2018-09-20T06:08:48.333Z,5.87
2018-09-20T06:11:15.881Z,5.93
2018-09-20T06:13:43.479Z,6.03
2018-09-20T06:16:11.016Z,6.07
2018-09-20T06:18:38.536Z,6.03
2018-09-20T06:21:06.099Z,5.57
2018-09-20T06:23:33.637Z,5.93
2018-09-20T06:26:01.235Z,5.93
2018-09-20T06:28:28.822Z,5.53
2018-09-20T06:30:56.371Z,5.83
2018-09-20T06:33:23.898Z,5.50
2018-09-20T06:35:51.447Z,5.83
2018-09-20T06:38:19.240Z,5.77
2018-09-20T06:40:46.769Z,5.30
2018-09-20T06:43:14.281Z,5.40
2018-09-20T06:45:41.855Z,5.33
2018-09-20T06:48:09.373Z,5.40
2018-09-20T06:50:37.117Z,5.87
2018-09-20T06:53:04.638Z,5.07
2018-09-20T06:55:32.221Z,5.93
2018-09-20T06:57:59.727Z,5.50
2018-09-20T07:00:27.269Z,5.47
2018-09-20T07:02:54.933Z,4.80
2018-09-20T07:05:22.428Z,5.53
2018-09-20T07:07:50.012Z,5.40
2018-09-20T07:10:17.555Z,5.90
2018-09-20T07:15:18.823Z,5.43
2018-09-20T07:17:46.393Z,5.10
2018-09-20T07:20:13.968Z,4.97
2018-09-20T07:22:41.548Z,5.47
2018-09-20T07:25:09.084Z,5.97
2018-09-20T07:27:36.675Z,5.23
2018-09-20T07:30:04.198Z,5.57
2018-09-20T07:32:31.773Z,6.07
2018-09-20T07:34:59.301Z,5.37
2018-09-20T07:37:26.880Z,5.10
2018-09-20T07:39:54.411Z,5.27
2018-09-20T07:42:22.019Z,5.57
2018-09-20T07:44:49.771Z,5.10
2018-09-20T07:47:17.338Z,4.93
2018-09-20T07:49:44.860Z,5.13
2018-09-20T07:54:46.150Z,5.32
2018-09-20T07:57:13.710Z,4.67
2018-09-20T07:59:41.276Z,4.93
2018-09-20T08:02:08.863Z,4.87
2018-09-20T08:04:36.380Z,5.30
2018-09-20T08:07:03.979Z,4.97
2018-09-20T08:09:31.519Z,5.00
2018-09-20T08:11:59.089Z,5.33
2018-09-20T08:14:26.657Z,4.97
2018-09-20T08:16:54.177Z,4.73
2018-09-20T08:19:21.740Z,4.70
2018-09-20T08:21:49.304Z,5.20
2018-09-20T08:24:16.883Z,4.70
2018-09-20T08:26:44.394Z,5.43
2018-09-20T08:29:11.974Z,4.57
2018-09-20T08:31:39.540Z,5.10
2018-09-20T08:34:07.127Z,4.67
2018-09-20T08:36:35.480Z,5.03
2018-09-20T08:39:03.060Z,5.30
2018-09-20T08:41:30.644Z,5.13
2018-09-20T08:43:58.327Z,5.00
2018-09-20T08:46:25.903Z,5.53
2018-09-20T08:48:53.419Z,5.03
2018-09-20T08:51:20.990Z,5.00
2018-09-20T08:53:48.552Z,4.87
2018-09-20T08:56:16.277Z,4.87
2018-09-20T08:58:44.020Z,4.90
2018-09-20T09:01:11.570Z,5.03
2018-09-20T09:03:39.261Z,5.07
2018-09-20T09:06:06.790Z,4.37
2018-09-20T09:08:34.313Z,4.90
2018-09-20T09:11:01.908Z,4.67
2018-09-20T09:13:29.679Z,4.78
2018-09-20T09:15:57.248Z,4.40
2018-09-20T09:18:24.816Z,4.87
2018-09-20T09:20:52.356Z,4.33
2018-09-20T09:23:19.899Z,4.43
2018-09-20T09:25:47.470Z,4.70
2018-09-20T09:28:15.052Z,4.97
2018-09-20T09:30:42.636Z,5.30
2018-09-20T09:33:10.151Z,5.23
2018-09-20T09:35:37.690Z,3.83
2018-09-20T09:38:05.230Z,3.90
2018-09-20T09:40:33.676Z,4.03
2018-09-20T09:43:01.184Z,4.10
2018-09-20T09:45:28.761Z,4.10
2018-09-20T09:47:56.281Z,4.63
2018-09-20T09:50:23.817Z,3.70
2018-09-20T09:52:51.513Z,4.47
2018-09-20T09:55:19.112Z,4.00
2018-09-20T09:57:46.646Z,4.23
2018-09-20T10:00:14.199Z,3.87
2018-09-20T10:02:41.762Z,4.50
2018-09-20T10:05:09.327Z,4.00
2018-09-20T10:07:36.872Z,4.00
2018-09-20T10:10:04.638Z,4.20
2018-09-20T10:12:32.196Z,3.93
2018-09-20T10:14:59.807Z,3.77
2018-09-20T10:17:27.323Z,4.07
2018-09-20T10:19:54.904Z,4.13
2018-09-20T10:22:22.444Z,4.05
2018-09-20T10:24:50.006Z,4.23
2018-09-20T10:27:17.753Z,3.70
2018-09-20T10:29:45.303Z,4.30
2018-09-20T10:32:12.872Z,4.37
2018-09-20T10:34:40.392Z,4.20
2018-09-20T10:37:07.963Z,4.30
2018-09-20T10:39:35.489Z,4.60
2018-09-20T10:42:03.019Z,3.97
2018-09-20T10:44:30.602Z,4.07
2018-09-20T10:46:58.341Z,4.10
2018-09-20T10:49:25.927Z,3.80
2018-09-20T10:51:53.486Z,4.30
2018-09-20T10:54:21.009Z,3.90
2018-09-20T10:56:48.579Z,4.17
2018-09-20T10:59:16.156Z,4.37
2018-09-20T11:01:43.747Z,4.00
2018-09-20T11:04:11.256Z,3.50
2018-09-20T11:06:38.827Z,4.72
2018-09-20T11:09:06.381Z,4.27
2018-09-20T11:11:33.958Z,4.70
2018-09-20T11:14:01.518Z,4.23
2018-09-20T11:16:29.098Z,4.30
2018-09-20T11:18:56.617Z,3.70
2018-09-20T11:21:24.332Z,4.13
2018-09-20T11:23:51.842Z,3.50
2018-09-20T11:26:19.429Z,3.73
2018-09-20T11:28:47.015Z,3.90
2018-09-20T11:31:14.551Z,3.70
2018-09-20T11:33:42.123Z,3.87
2018-09-20T11:36:09.677Z,3.83
2018-09-20T11:38:37.230Z,3.40
2018-09-20T11:41:04.941Z,3.77
2018-09-20T11:43:32.453Z,3.37
2018-09-20T11:46:00.040Z,3.07
2018-09-20T11:48:27.579Z,3.53
2018-09-20T11:50:55.163Z,3.47
2018-09-20T11:53:22.748Z,3.23
2018-09-20T11:55:50.273Z,3.63
2018-09-20T11:58:17.845Z,3.67
2018-09-20T12:00:45.432Z,3.20
2018-09-20T12:03:13.013Z,3.23
2018-09-20T12:05:40.533Z,3.30
2018-09-20T12:08:08.175Z,3.20
2018-09-20T12:10:35.728Z,2.93
2018-09-20T12:13:03.308Z,3.23
2018-09-20T12:15:30.864Z,2.73
2018-09-20T12:17:58.463Z,3.40
2018-09-20T12:20:25.993Z,2.50
2018-09-20T12:22:53.578Z,2.93
2018-09-20T12:25:21.113Z,3.33
2018-09-20T12:27:48.799Z,2.77
2018-09-20T12:30:16.385Z,3.03
2018-09-20T12:32:44.020Z,3.30
2018-09-20T12:35:11.598Z,3.00
2018-09-20T12:37:39.168Z,3.17
2018-09-20T12:40:06.768Z,3.17
2018-09-20T12:42:34.349Z,3.10
2018-09-20T12:45:01.892Z,3.00
2018-09-20T12:47:29.453Z,3.50
2018-09-20T12:49:57.075Z,3.20
2018-09-20T12:52:24.656Z,2.70
2018-09-20T12:54:52.171Z,3.00
2018-09-20T12:57:19.701Z,2.60
2018-09-20T12:59:47.305Z,3.13
2018-09-20T13:02:14.880Z,3.00
2018-09-20T13:04:42.351Z,3.20
2018-09-20T13:07:09.995Z,3.87
2018-09-20T13:09:37.583Z,3.22
2018-09-20T13:12:05.105Z,3.30
2018-09-20T13:14:33.351Z,2.87
2018-09-20T13:17:00.909Z,3.23
2018-09-20T13:19:28.446Z,3.20
2018-09-20T13:21:56.005Z,3.20
2018-09-20T13:24:23.567Z,3.43
2018-09-20T13:26:51.134Z,3.28
2018-09-20T13:29:18.654Z,3.07
2018-09-20T13:31:46.235Z,3.30
2018-09-20T13:34:13.824Z,4.00
2018-09-20T13:36:41.360Z,3.30
2018-09-20T13:39:08.949Z,3.00
2018-09-20T13:41:36.480Z,2.83
2018-09-20T13:44:04.081Z,3.10
2018-09-20T13:46:31.815Z,3.40
2018-09-20T13:48:59.332Z,2.90
2018-09-20T13:51:26.934Z,2.90
2018-09-20T13:53:54.438Z,2.90
2018-09-20T13:56:22.013Z,3.27
2018-09-20T13:58:49.542Z,2.83
2018-09-20T14:01:17.123Z,3.27
2018-09-20T14:03:44.771Z,3.37
2018-09-20T14:06:12.363Z,3.20
2018-09-20T14:08:40.168Z,3.23
2018-09-20T14:11:07.670Z,3.17
2018-09-20T14:13:35.247Z,3.17
2018-09-20T14:16:02.772Z,3.53
2018-09-20T14:18:30.340Z,3.63
2018-09-20T14:21:01.517Z,3.20
2018-09-20T14:23:29.050Z,3.50
2018-09-20T14:25:56.685Z,3.23
2018-09-20T14:28:24.250Z,3.30
2018-09-20T14:30:51.808Z,3.20
2018-09-20T14:33:19.362Z,3.30
2018-09-20T14:35:46.904Z,3.73
2018-09-20T14:38:14.463Z,3.17
2018-09-20T14:40:41.987Z,3.30
2018-09-20T14:43:09.553Z,3.33
2018-09-20T14:45:37.267Z,3.43
2018-09-20T14:48:04.790Z,3.10
2018-09-20T14:50:33.361Z,3.60
2018-09-20T14:53:00.899Z,3.63
2018-09-20T14:55:28.455Z,3.70
2018-09-20T14:57:56.020Z,3.70
2018-09-20T15:00:23.532Z,2.80
2018-09-20T15:02:51.100Z,3.35
2018-09-20T15:05:18.741Z,4.07
2018-09-20T15:07:46.299Z,3.10
2018-09-20T15:10:13.855Z,3.43
2018-09-20T15:12:41.425Z,3.20
2018-09-20T15:15:09.020Z,3.20
2018-09-20T15:17:36.485Z,3.33
2018-09-20T15:20:04.041Z,3.17
2018-09-20T15:22:31.557Z,3.70
2018-09-20T15:24:59.121Z,3.50
2018-09-20T15:27:26.706Z,3.40
2018-09-20T15:29:54.255Z,3.30
2018-09-20T15:32:21.819Z,3.57
2018-09-20T15:34:49.492Z,3.30
2018-09-20T15:37:17.054Z,3.33
2018-09-20T15:39:44.646Z,3.40
2018-09-20T15:42:12.187Z,3.20
2018-09-20T15:44:39.743Z,3.00
2018-09-20T15:47:07.288Z,2.93
2018-09-20T15:49:34.861Z,2.90
2018-09-20T15:52:02.440Z,3.63
2018-09-20T15:54:30.022Z,2.97
2018-09-20T15:56:57.635Z,2.87
2018-09-20T15:59:25.213Z,3.10
2018-09-20T16:01:52.789Z,3.13
2018-09-20T16:04:20.375Z,3.10
2018-09-20T16:06:47.916Z,2.70
2018-09-20T16:09:15.450Z,3.13
2018-09-20T16:11:43.031Z,3.00
2018-09-20T16:14:10.793Z,3.13
2018-09-20T16:16:38.626Z,2.83
2018-09-20T16:19:06.628Z,3.17
2018-09-20T16:21:34.583Z,2.83
2018-09-20T16:24:02.227Z,3.23
2018-09-20T16:26:29.948Z,3.07
2018-09-20T16:29:01.148Z,3.10
2018-09-20T16:31:37.426Z,2.70
2018-09-20T16:34:06.802Z,3.20
2018-09-20T16:36:35.255Z,3.40
2018-09-20T16:39:03.435Z,2.63
2018-09-20T16:41:32.163Z,3.20
2018-09-20T16:44:00.279Z,2.93
2018-09-20T16:46:28.342Z,2.90
2018-09-20T16:48:56.296Z,3.23
2018-09-20T16:51:24.112Z,3.00
2018-09-20T16:53:51.972Z,3.07
2018-09-20T16:56:19.673Z,3.10
2018-09-20T16:58:48.046Z,3.10
2018-09-20T17:01:16.202Z,2.70
2018-09-20T17:03:44.089Z,3.00
2018-09-20T17:06:11.927Z,3.17
2018-09-20T17:08:41.771Z,3.15
2018-09-20T17:11:09.738Z,2.83
2018-09-20T17:13:38.046Z,3.23
2018-09-20T17:16:05.597Z,3.17
2018-09-20T17:18:33.892Z,2.60
2018-09-20T17:21:01.488Z,2.60
2018-09-20T17:23:29.213Z,2.70
2018-09-20T17:25:58.158Z,3.10
2018-09-20T17:28:26.024Z,2.93
2018-09-20T17:30:55.437Z,3.10
2018-09-20T17:33:24.772Z,3.60
2018-09-20T17:35:53.852Z,3.40
2018-09-20T17:38:22.285Z,3.60
2018-09-20T17:40:51.220Z,3.40
2018-09-20T17:43:21.270Z,3.20
2018-09-20T17:45:49.814Z,3.37
2018-09-20T17:48:31.394Z,3.40
2018-09-20T17:51:00.818Z,2.90
2018-09-20T18:15:27.239Z,3.80
2018-09-20T18:17:55.009Z,3.70
2018-09-20T18:20:22.860Z,3.67
2018-09-20T18:22:50.488Z,3.67
2018-09-20T18:25:18.067Z,3.10
2018-09-20T18:27:45.697Z,3.67
2018-09-20T18:30:13.574Z,3.20
2018-09-20T18:32:41.242Z,3.53
2018-09-20T18:35:09.073Z,4.13
2018-09-20T18:37:36.853Z,4.03
2018-09-20T18:40:05.449Z,3.80
2018-09-20T18:42:33.086Z,3.13
2018-09-20T18:45:00.582Z,2.67
2018-09-20T18:47:28.165Z,3.17
2018-09-20T18:49:55.696Z,3.90
2018-09-20T18:52:23.292Z,3.33
2018-09-20T18:54:51.004Z,3.27
2018-09-20T18:57:18.554Z,3.03
2018-09-20T18:59:46.091Z,2.93
2018-09-20T19:02:13.642Z,3.33
2018-09-20T19:04:41.215Z,2.80
2018-09-20T19:07:08.745Z,2.90
2018-09-20T19:09:36.310Z,3.40
2018-09-20T19:12:04.019Z,3.33
2018-09-20T19:14:31.590Z,3.03
2018-09-20T19:16:59.229Z,3.37
2018-09-20T19:19:27.017Z,3.00
2018-09-20T19:21:54.748Z,3.23
2018-09-20T19:24:22.616Z,3.10
2018-09-20T19:26:50.155Z,2.93
2018-09-20T19:29:17.711Z,3.20
2018-09-20T19:31:45.260Z,3.20
2018-09-20T19:34:12.853Z,3.13
2018-09-20T19:36:41.340Z,2.90
2018-09-20T19:39:08.906Z,3.33
2018-09-20T19:41:36.445Z,2.70
2018-09-20T19:44:04.008Z,3.17
2018-09-20T19:46:31.544Z,3.47
2018-09-20T19:48:59.135Z,3.30
2018-09-20T19:51:26.669Z,3.03
2018-09-20T19:53:54.222Z,2.97
2018-09-20T19:56:21.770Z,2.80
2018-09-20T19:58:49.356Z,2.60
2018-09-20T20:01:16.886Z,2.90
2018-09-20T20:03:44.478Z,3.20
2018-09-20T20:06:12.063Z,2.97
2018-09-20T20:08:39.648Z,3.27
2018-09-20T20:11:07.202Z,3.00
2018-09-20T20:13:34.764Z,3.00
2018-09-20T20:16:02.342Z,2.80
2018-09-20T20:18:29.845Z,2.93
2018-09-20T20:20:57.371Z,3.10
2018-09-20T20:23:24.970Z,3.00
2018-09-20T20:25:52.489Z,4.50
2018-09-20T20:28:20.071Z,3.67
2018-09-20T20:30:47.600Z,2.93
2018-09-20T20:33:15.138Z,3.10
2018-09-20T20:35:42.690Z,3.10
2018-09-20T20:38:10.307Z,2.73
2018-09-20T20:40:37.816Z,2.93
2018-09-20T20:43:05.382Z,3.27
2018-09-20T20:45:32.919Z,3.07
2018-09-20T20:48:00.533Z,3.30
2018-09-20T20:50:28.061Z,2.87
2018-09-20T20:52:55.678Z,3.40
2018-09-20T20:55:23.213Z,3.20
2018-09-20T20:57:50.771Z,2.83
2018-09-20T21:00:18.340Z,3.10
2018-09-20T21:02:46.072Z,2.93
2018-09-20T21:05:13.642Z,3.53
2018-09-20T21:07:41.173Z,3.13
2018-09-20T21:10:08.851Z,3.20
2018-09-20T21:12:36.362Z,3.10
2018-09-20T21:15:04.011Z,3.50
2018-09-20T21:17:31.549Z,3.20
2018-09-20T21:19:59.089Z,3.03
2018-09-20T21:22:26.656Z,3.00
2018-09-20T21:24:54.236Z,3.10
2018-09-20T21:27:21.806Z,3.40
2018-09-20T21:29:49.331Z,3.47
2018-09-20T21:32:16.920Z,3.30
2018-09-20T21:34:44.449Z,3.27
2018-09-20T21:37:12.078Z,3.30
2018-09-20T21:39:39.607Z,2.97
2018-09-20T21:42:07.122Z,3.00
2018-09-20T21:44:34.676Z,3.27
2018-09-20T21:47:02.188Z,3.33
2018-09-20T21:49:29.752Z,3.67
2018-09-20T21:51:57.405Z,3.40
2018-09-20T21:54:24.948Z,2.97
2018-09-20T21:56:52.504Z,3.37
2018-09-20T21:59:20.159Z,3.23
2018-09-20T22:01:47.673Z,3.20
2018-09-20T22:04:15.242Z,3.23
2018-09-20T22:06:42.811Z,3.30
2018-09-20T22:09:10.340Z,3.03
2018-09-20T22:11:37.884Z,3.23
2018-09-20T22:14:05.453Z,3.57
2018-09-20T22:16:33.036Z,3.37
2018-09-20T22:19:00.566Z,3.10
2018-09-20T22:21:32.787Z,2.57
2018-09-20T22:24:00.305Z,3.30
2018-09-20T22:26:27.868Z,6.40
2018-09-20T22:28:55.386Z,4.27
2018-09-20T22:31:24.088Z,3.70
2018-09-20T22:33:51.656Z,3.40
2018-09-20T22:36:19.208Z,3.40
2018-09-20T22:38:49.360Z,3.73
2018-09-20T22:41:16.942Z,3.20
2018-09-20T22:43:44.529Z,3.50
2018-09-20T22:46:12.050Z,3.53
2018-09-20T22:48:39.602Z,3.40
2018-09-20T22:51:07.169Z,3.23
2018-09-20T22:53:34.704Z,3.43
2018-09-20T22:56:02.512Z,3.33
2018-09-20T22:58:30.046Z,3.60
2018-09-20T23:00:57.653Z,3.57
2018-09-20T23:03:25.185Z,3.27
2018-09-20T23:05:52.721Z,3.73
2018-09-20T23:08:20.287Z,3.23
2018-09-20T23:10:47.810Z,3.67
2018-09-20T23:13:15.358Z,3.10
2018-09-20T23:15:42.877Z,3.23
2018-09-20T23:18:10.470Z,3.40
2018-09-20T23:20:37.983Z,3.60
2018-09-20T23:23:05.560Z,4.00
2018-09-20T23:25:33.096Z,4.17
2018-09-20T23:28:00.641Z,3.90
2018-09-20T23:30:29.334Z,3.77
2018-09-20T23:32:56.843Z,3.60
2018-09-20T23:35:24.550Z,3.67
2018-09-20T23:37:53.245Z,3.37
2018-09-20T23:40:20.830Z,3.40
2018-09-20T23:42:48.450Z,3.70
2018-09-20T23:45:16.221Z,3.83
2018-09-20T23:47:43.796Z,3.77
2018-09-20T23:50:11.443Z,4.20
2018-09-20T23:52:39.289Z,4.00
2018-09-20T23:55:09.143Z,4.20
2018-09-20T23:57:37.777Z,3.63
